Time;durP1;ratioP1;P1;durP2;ratioP2;P2;SDS_P1;SDS_P2;PMS_P1;PMS_P2;Temp;Humidity;BMP_temperature;BMP_pressure;BME280_temperature;BME280_humidity;BME280_pressure;Samples;Min_cycle;Max_cycle;Signal;HPM_P1;HPM_P2
2021/12/22 00:01:59;;;;;;;;;18.00;15.50;;;;;21.01;28.66;101843.22;5057278;28;45420;-51
2021/12/22 00:04:25;;;;;;;;;16.00;13.00;;;;;21.02;28.58;101841.47;5057572;28;45308;-51
2021/12/22 00:06:52;;;;;;;;;13.00;13.00;;;;;21.03;28.85;101840.53;5057121;28;45586;-52
2021/12/22 00:09:18;;;;;;;;;18.00;16.00;;;;;21.04;28.88;101844.03;5057607;28;45246;-52
2021/12/22 00:11:44;;;;;;;;;15.50;13.50;;;;;21.03;28.77;101837.91;5056951;28;47304;-53
2021/12/22 00:14:10;;;;;;;;;18.25;13.00;;;;;21.05;28.68;101841.34;5056927;28;45423;-52
2021/12/22 00:16:37;;;;;;;;;17.00;14.75;;;;;21.05;28.38;101837.84;5057041;28;45355;-50
2021/12/22 00:19:03;;;;;;;;;16.75;15.75;;;;;21.05;28.29;101838.72;5057274;28;45506;-54
2021/12/22 00:21:29;;;;;;;;;12.00;12.00;;;;;21.06;28.48;101829.84;5056196;28;46661;-51
2021/12/22 00:23:54;;;;;;;;;16.75;15.25;;;;;21.07;28.35;101830.72;5039062;28;45363;-52
2021/12/22 00:26:20;;;;;;;;;15.50;12.50;;;;;21.09;28.86;101834.16;5057011;28;45399;-53
2021/12/22 00:28:46;;;;;;;;;15.50;15.50;;;;;21.10;28.72;101825.34;5057386;28;45591;-53
2021/12/22 00:31:14;;;;;;;;;12.50;12.50;;;;;21.10;28.88;101830.59;5056741;28;47131;-53
2021/12/22 00:33:49;;;;;;;;;17.50;12.00;;;;;21.10;28.38;101827.97;5038813;28;45249;-52
2021/12/22 00:36:18;;;;;;;;;15.00;13.00;;;;;21.10;28.47;101823.53;5057057;28;45926;-51
2021/12/22 00:38:44;;;;;;;;;12.00;12.00;;;;;21.12;28.72;101818.19;5057024;28;45522;-53
2021/12/22 00:41:09;;;;;;;;;17.50;15.00;;;;;21.12;28.25;101820.81;5056628;28;45507;-53
2021/12/22 00:43:35;;;;;;;;;12.75;12.75;;;;;21.12;28.57;101819.06;5056796;28;45394;-51
2021/12/22 00:46:01;;;;;;;;;11.00;11.00;;;;;21.12;28.69;101820.81;5057056;28;45385;-50
2021/12/22 00:48:26;;;;;;;;;13.00;11.75;;;;;21.12;28.72;101829.63;5057247;28;45308;-52
2021/12/22 00:50:52;;;;;;;;;13.75;12.00;;;;;21.14;28.62;101832.16;5056569;28;45276;-53
2021/12/22 00:53:17;;;;;;;;;15.00;12.25;;;;;21.11;28.58;101820.00;5056619;28;45494;-53
2021/12/22 00:55:43;;;;;;;;;15.50;14.00;;;;;21.14;28.70;101825.13;5056740;28;45700;-53
2021/12/22 00:58:08;;;;;;;;;12.50;12.00;;;;;21.15;28.25;101823.34;5056893;28;45555;-54
2021/12/22 01:00:34;;;;;;;;;13.25;12.00;;;;;21.16;28.51;101822.44;5056336;28;45465;-54
2021/12/22 01:03:01;;;;;;;;;15.25;13.50;;;;;21.15;28.21;101818.06;5056771;28;45252;-52
2021/12/22 01:05:26;;;;;;;;;14.25;12.50;;;;;21.16;28.35;101819.78;5056774;28;45221;-52
2021/12/22 01:07:52;;;;;;;;;14.75;14.00;;;;;21.16;28.38;101825.06;5038403;28;45605;-53
2021/12/22 01:10:25;;;;;;;;;13.00;11.00;;;;;21.17;28.67;101822.34;5056274;28;45461;-52
2021/12/22 01:12:56;;;;;;;;;14.75;12.00;;;;;21.18;28.24;101823.22;5056348;28;45293;-52
2021/12/22 01:15:22;;;;;;;;;14.75;13.25;;;;;21.19;28.68;101824.06;5056312;28;45414;-50
2021/12/22 01:17:56;;;;;;;;;16.00;11.25;;;;;21.19;28.47;101824.06;5056552;28;45540;-51
2021/12/22 01:21:30;;;;;;;;;13.50;12.25;;;;;21.19;28.63;101830.22;5039350;28;47481;-54
2021/12/22 01:23:19;;;;;;;;;15.50;12.00;;;;;21.20;28.55;101825.78;5046936;28;45401;-52
2021/12/22 01:25:47;;;;;;;;;13.75;12.00;;;;;21.18;28.59;101815.31;5056311;28;45325;-51
2021/12/22 01:28:14;;;;;;;;;11.25;10.00;;;;;21.20;28.19;101825.78;5056406;28;45514;-53
2021/12/22 01:30:43;;;;;;;;;9.00;9.00;;;;;21.23;28.75;101826.50;5055956;28;45379;-53
2021/12/22 01:33:09;;;;;;;;;11.25;10.00;;;;;21.22;28.27;101813.41;5058562;28;45803;-51
2021/12/22 01:35:35;;;;;;;;;10.25;9.50;;;;;21.21;28.29;101803.78;5041575;28;45201;-54
2021/12/22 01:38:01;;;;;;;;;12.50;12.00;;;;;21.22;28.21;101808.13;5042325;28;45517;-53
2021/12/22 01:40:28;;;;;;;;;12.75;11.00;;;;;21.24;28.31;101808.94;5059404;28;46257;-49
2021/12/22 01:42:55;;;;;;;;;10.00;9.75;;;;;21.23;28.52;101810.69;5059690;28;45835;-50
2021/12/22 01:51:54;;;;;;;;;13.00;10.25;;;;;21.24;28.26;101806.28;5059708;28;45381;-53
2021/12/22 01:54:19;;;;;;;;;15.50;11.00;;;;;21.25;28.32;101800.94;5059212;28;45860;-52
2021/12/22 01:56:46;;;;;;;;;11.67;11.67;;;;;21.25;28.12;101798.31;5059579;28;45289;-50
2021/12/22 01:59:12;;;;;;;;;11.25;11.25;;;;;21.26;28.06;101804.44;5059495;28;45590;-52
2021/12/22 02:01:39;;;;;;;;;8.00;8.00;;;;;21.26;28.18;101802.66;5059169;28;46515;-51
2021/12/22 02:04:10;;;;;;;;;12.50;8.00;;;;;21.26;28.31;101810.56;5059612;28;45781;-51
2021/12/22 02:06:38;;;;;;;;;12.25;11.25;;;;;21.26;28.50;101805.28;5059163;28;45367;-53
2021/12/22 02:09:03;;;;;;;;;15.50;10.00;;;;;21.26;28.59;101805.28;5059477;28;45347;-53
2021/12/22 02:11:29;;;;;;;;;10.00;9.25;;;;;21.28;28.64;101807.84;5058858;28;46579;-51
2021/12/22 02:13:59;;;;;;;;;11.25;9.00;;;;;21.27;28.17;101799.09;5059020;28;45299;-53
2021/12/22 02:16:29;;;;;;;;;10.50;10.50;;;;;21.29;28.49;101794.63;5041135;28;45302;-53
2021/12/22 02:18:55;;;;;;;;;13.50;11.00;;;;;21.29;28.49;101794.63;5059238;28;45559;-51
2021/12/22 02:21:23;;;;;;;;;13.00;11.75;;;;;21.28;28.08;101799.94;5058934;28;46339;-53
2021/12/22 02:23:48;;;;;;;;;11.75;10.00;;;;;21.28;28.05;101798.19;5058896;28;45240;-52
2021/12/22 02:26:28;;;;;;;;;11.50;9.00;;;;;21.29;28.32;101802.53;5059077;28;45319;-53
2021/12/22 02:29:00;;;;;;;;;10.50;10.50;;;;;21.29;28.00;101799.03;5059179;28;45495;-52
2021/12/22 02:31:25;;;;;;;;;10.50;9.50;;;;;21.29;28.42;101807.81;5058718;28;47219;-53
2021/12/22 02:33:51;;;;;;;;;8.75;7.75;;;;;21.30;28.08;101811.28;5058962;28;45389;-50
2021/12/22 02:38:46;;;;;;;;;11.25;11.00;;;;;21.31;28.12;101797.19;5058924;28;45467;-52
2021/12/22 02:41:14;;;;;;;;;13.25;10.75;;;;;21.29;28.00;101789.34;5058586;28;46781;-51
2021/12/22 02:43:52;;;;;;;;;12.00;12.00;;;;;21.30;28.16;101785.78;5057603;28;45380;-52
2021/12/22 02:46:20;;;;;;;;;12.00;11.50;;;;;21.30;28.01;101791.06;5058592;28;45436;-50
2021/12/22 02:48:46;;;;;;;;;10.25;10.25;;;;;21.29;27.93;101788.47;5058770;28;45557;-53
2021/12/22 02:51:13;;;;;;;;;9.00;8.50;;;;;21.31;27.78;101791.91;5058509;28;45776;-53
2021/12/22 02:54:01;;;;;;;;;12.25;9.75;;;;;21.30;27.72;101791.06;5040416;28;45763;-51
2021/12/22 03:04:05;;;;;;;;;16.00;13.00;;;;;21.34;28.02;101783.00;5057213;28;45441;-52
2021/12/22 03:06:38;;;;;;;;;12.00;11.00;;;;;21.33;27.98;101779.50;5058415;28;45368;-52
2021/12/22 03:09:16;;;;;;;;;11.75;10.25;;;;;21.34;27.84;101791.78;5058549;28;45315;-52
2021/12/22 03:11:42;;;;;;;;;11.00;10.75;;;;;21.34;28.05;101790.91;5058172;28;46687;-52
2021/12/22 03:14:08;;;;;;;;;11.50;11.50;;;;;21.34;28.03;101790.91;5040512;28;45229;-53
2021/12/22 03:16:33;;;;;;;;;11.25;10.25;;;;;21.34;27.83;101790.91;5040607;28;45797;-59
2021/12/22 03:18:58;;;;;;;;;13.50;11.00;;;;;21.34;27.92;101780.34;5058392;28;45569;-54
2021/12/22 03:21:24;;;;;;;;;10.25;10.25;;;;;21.35;27.80;101780.31;5058054;28;45359;-54
2021/12/22 03:23:52;;;;;;;;;13.75;10.50;;;;;21.35;28.04;101788.22;5058066;28;45406;-52
2021/12/22 03:26:20;;;;;;;;;15.00;12.75;;;;;21.36;28.08;101789.06;5058367;28;45309;-52
2021/12/22 03:28:46;;;;;;;;;12.00;10.75;;;;;21.35;27.78;101789.97;5058177;28;45315;-54
2021/12/22 03:31:12;;;;;;;;;14.25;13.00;;;;;21.36;28.01;101784.66;5057820;28;46110;-50
2021/12/22 03:33:38;;;;;;;;;13.50;12.25;;;;;21.36;28.04;101794.34;5058166;28;45723;-51
2021/12/22 03:36:03;;;;;;;;;12.25;11.00;;;;;21.36;28.15;101786.44;5058064;28;45244;-51
2021/12/22 03:38:31;;;;;;;;;15.25;12.00;;;;;21.35;28.10;101780.31;5058142;28;45407;-54
2021/12/22 03:40:56;;;;;;;;;10.25;10.25;;;;;21.36;27.89;101781.16;5057703;28;46483;-53
2021/12/22 03:43:22;;;;;;;;;13.75;11.75;;;;;21.37;27.95;101780.22;5057850;28;45679;-53
2021/12/22 03:45:47;;;;;;;;;13.25;12.25;;;;;21.37;27.67;101777.59;5057826;28;45431;-54
2021/12/22 03:48:16;;;;;;;;;15.25;13.25;;;;;21.36;27.71;101770.59;5057845;28;45378;-52
2021/12/22 03:50:41;;;;;;;;;13.00;13.00;;;;;21.38;28.04;101779.31;5057425;28;46649;-54
2021/12/22 03:53:07;;;;;;;;;12.00;11.00;;;;;21.37;27.98;101780.22;5057952;28;45462;-51
2021/12/22 03:55:32;;;;;;;;;15.75;13.75;;;;;21.37;27.98;101780.22;5057522;28;45241;-52
2021/12/22 03:57:57;;;;;;;;;10.75;10.75;;;;;21.37;27.44;101789.00;5057712;28;45261;-52
2021/12/22 04:00:23;;;;;;;;;11.25;9.50;;;;;21.38;27.79;101784.59;5057298;28;45319;-52
2021/12/22 04:02:48;;;;;;;;;10.00;10.00;;;;;21.38;27.90;101776.66;5057429;28;45230;-51
2021/12/22 04:05:14;;;;;;;;;13.75;13.50;;;;;21.38;27.83;101781.94;5057486;28;45269;-50
2021/12/22 04:07:39;;;;;;;;;9.75;9.75;;;;;21.40;27.85;101788.00;5057593;28;45490;-52
2021/12/22 04:10:19;;;;;;;;;14.25;12.00;;;;;21.38;27.62;101771.41;5057123;28;45493;-52
2021/12/22 04:12:55;;;;;;;;;12.25;12.00;;;;;21.39;28.01;101773.13;5056053;28;45438;-53
2021/12/22 04:15:22;;;;;;;;;10.00;10.00;;;;;21.38;27.91;101759.09;5057432;28;45327;-51
2021/12/22 04:17:47;;;;;;;;;11.75;10.75;;;;;21.38;27.90;101751.19;5057299;28;45295;-53
2021/12/22 04:20:13;;;;;;;;;16.25;13.25;;;;;21.39;27.95;101759.94;5056916;28;46368;-52
2021/12/22 04:22:39;;;;;;;;;13.00;12.00;;;;;21.40;27.61;101759.00;5057392;28;45452;-51
2021/12/22 04:25:07;;;;;;;;;10.50;10.50;;;;;21.39;27.44;101754.66;5057187;28;45178;-50
2021/12/22 04:27:33;;;;;;;;;15.25;12.75;;;;;21.39;27.70;101752.84;5057411;28;45335;-53
2021/12/22 04:29:59;;;;;;;;;14.00;13.00;;;;;21.41;28.06;101760.72;5056741;28;45393;-51
2021/12/22 04:32:24;;;;;;;;;12.00;10.75;;;;;21.41;28.00;101766.84;5056939;28;45495;-54
2021/12/22 04:34:50;;;;;;;;;12.75;11.75;;;;;21.41;28.08;101773.91;5057025;28;45461;-53
2021/12/22 04:37:15;;;;;;;;;11.50;11.50;;;;;21.41;27.99;101771.28;5057141;28;45348;-57
2021/12/22 04:39:40;;;;;;;;;13.25;10.75;;;;;21.42;27.84;101762.44;5057071;28;46381;-51
2021/12/22 04:42:06;;;;;;;;;18.25;13.50;;;;;21.41;27.68;101769.47;5056504;28;45460;-51
2021/12/22 04:44:32;;;;;;;;;11.00;11.00;;;;;21.42;27.63;101773.81;5056873;28;45395;-51
2021/12/22 04:46:59;;;;;;;;;15.00;11.00;;;;;21.42;28.05;101765.91;5056986;28;45535;-53
2021/12/22 04:49:24;;;;;;;;;11.75;10.50;;;;;21.40;28.04;101769.56;5038470;28;45723;-51
2021/12/22 04:51:52;;;;;;;;;15.75;12.25;;;;;21.44;27.57;101781.69;5056625;28;45401;-53
2021/12/22 04:54:30;;;;;;;;;12.50;11.00;;;;;21.42;27.54;101776.47;5056791;28;45405;-53
2021/12/22 04:56:57;;;;;;;;;11.75;11.50;;;;;21.44;28.02;101786.97;5056812;28;45391;-53
2021/12/22 04:59:23;;;;;;;;;11.50;9.25;;;;;21.45;27.79;101780.75;5056302;28;45454;-52
2021/12/22 05:01:48;;;;;;;;;10.50;10.50;;;;;21.43;27.96;101778.19;5056397;28;45348;-52
2021/12/22 05:04:13;;;;;;;;;14.50;11.00;;;;;21.45;27.99;101780.75;5056929;28;45174;-52
2021/12/22 05:06:39;;;;;;;;;13.75;13.75;;;;;21.44;27.72;101765.88;5056299;28;45705;-52
2021/12/22 05:09:06;;;;;;;;;12.75;10.25;;;;;21.46;27.87;101764.00;5056072;28;46430;-53
2021/12/22 05:11:32;;;;;;;;;13.00;10.00;;;;;21.46;28.01;101762.22;5056291;28;45363;-53
2021/12/22 05:13:58;;;;;;;;;10.00;10.00;;;;;21.46;27.46;101764.88;5056320;28;45362;-51
2021/12/22 05:16:23;;;;;;;;;11.75;11.25;;;;;21.46;27.67;101745.53;5056441;28;45651;-53
2021/12/22 05:18:53;;;;;;;;;12.25;10.25;;;;;21.46;27.50;101745.53;5056048;28;45589;-53
2021/12/22 05:21:21;;;;;;;;;9.75;7.25;;;;;21.46;27.66;101742.91;5056162;28;45167;-53
2021/12/22 05:23:50;;;;;;;;;12.00;11.00;;;;;21.46;28.00;101743.78;5056365;28;45249;-51
2021/12/22 05:26:16;;;;;;;;;11.50;9.00;;;;;21.47;27.73;101750.75;5056439;28;45784;-51
2021/12/22 05:28:42;;;;;;;;;13.50;10.25;;;;;21.47;27.68;101752.53;5056383;28;46538;-51
2021/12/22 05:31:07;;;;;;;;;10.00;9.00;;;;;21.46;27.67;101745.53;5056100;28;45293;-50
2021/12/22 05:33:32;;;;;;;;;9.00;9.00;;;;;21.44;27.77;101750.03;5056202;28;45221;-51
2021/12/22 05:35:58;;;;;;;;;10.50;9.00;;;;;21.43;27.66;101746.53;5056433;28;45550;-54
2021/12/22 05:38:24;;;;;;;;;14.75;12.00;;;;;21.43;27.67;101756.25;5055757;28;45386;-51
2021/12/22 05:40:49;;;;;;;;;14.25;10.75;;;;;21.41;27.39;101750.19;5055886;28;45823;-50
2021/12/22 05:43:15;;;;;;;;;10.25;9.00;;;;;21.40;27.75;101759.00;5055296;28;45430;-52
2021/12/22 05:45:41;;;;;;;;;13.00;11.00;;;;;21.38;27.92;101761.72;5056497;28;45253;-49
2021/12/22 05:48:06;;;;;;;;;10.50;9.50;;;;;21.37;27.68;101760.00;5037813;28;48161;-53
2021/12/22 05:50:32;;;;;;;;;9.75;9.00;;;;;21.36;27.60;101753.03;5055815;28;45388;-53
2021/12/22 05:52:57;;;;;;;;;13.00;13.00;;;;;21.33;27.59;101757.56;5055843;28;45478;-51
2021/12/22 05:55:23;;;;;;;;;13.25;10.00;;;;;21.31;27.77;101769.03;5056077;28;45540;-51
2021/12/22 05:57:48;;;;;;;;;15.25;13.00;;;;;21.28;27.46;101760.38;5055581;28;45539;-53
2021/12/22 06:00:15;;;;;;;;;13.25;12.00;;;;;21.26;27.72;101759.63;5056057;28;45484;-50
2021/12/22 06:02:41;;;;;;;;;34.00;25.25;;;;;20.84;23.71;101769.28;5055851;28;45347;-53
2021/12/22 06:05:06;;;;;;;;;36.00;30.50;;;;;19.65;24.74;101774.72;5056081;28;45584;-51
2021/12/22 06:07:32;;;;;;;;;34.25;32.00;;;;;18.57;25.16;101788.88;5055563;28;47718;-53
2021/12/22 06:09:57;;;;;;;;;36.25;31.25;;;;;17.67;26.07;101786.25;5055579;28;45182;-53
2021/12/22 06:12:23;;;;;;;;;37.25;31.25;;;;;17.00;26.53;101781.03;5055828;28;45385;-51
2021/12/22 06:14:48;;;;;;;;;42.50;34.00;;;;;16.41;27.38;101775.41;5055844;28;45532;-54
2021/12/22 06:17:14;;;;;;;;;41.00;31.75;;;;;15.85;27.80;101767.03;5054424;28;47427;-51
2021/12/22 06:19:40;;;;;;;;;37.75;31.75;;;;;15.40;28.17;101767.00;5057102;28;45339;-52
2021/12/22 06:22:05;;;;;;;;;43.50;34.75;;;;;15.03;28.60;101776.38;5040978;28;45212;-52
2021/12/22 06:24:31;;;;;;;;;44.00;33.00;;;;;14.69;28.81;101772.53;5059230;28;45384;-49
2021/12/22 06:26:57;;;;;;;;;31.50;30.75;;;;;14.26;29.17;101774.91;5058696;28;46811;-51
2021/12/22 06:29:23;;;;;;;;;44.50;34.75;;;;;13.94;29.70;101766.59;5058872;28;45529;-55
2021/12/22 06:31:48;;;;;;;;;37.50;33.25;;;;;13.69;29.96;101763.44;5058943;28;45352;-50
2021/12/22 06:34:14;;;;;;;;;34.50;32.25;;;;;13.91;30.86;101767.50;5059452;28;45480;-51
2021/12/22 06:36:40;;;;;;;;;31.00;28.00;;;;;14.35;30.75;101774.78;5058640;28;45521;-55
2021/12/22 06:39:06;;;;;;;;;28.00;24.25;;;;;14.80;30.75;101777.59;5058513;28;45445;-52
2021/12/22 06:41:32;;;;;;;;;23.00;22.00;;;;;15.22;30.63;101765.59;5058860;28;45368;-53
2021/12/22 06:43:58;;;;;;;;;29.50;22.25;;;;;15.59;30.47;101762.31;5040910;28;45261;-48
2021/12/22 06:46:23;;;;;;;;;22.50;20.00;;;;;15.93;30.40;101764.22;5058489;28;45510;-51
2021/12/22 06:48:48;;;;;;;;;21.25;19.50;;;;;16.20;30.16;101764.56;5058523;28;45343;-49
2021/12/22 06:51:14;;;;;;;;;21.50;17.50;;;;;16.48;29.96;101777.03;5059100;28;45258;-53
2021/12/22 06:53:39;;;;;;;;;20.00;17.25;;;;;16.73;29.50;101781.66;5058801;28;45367;-51
2021/12/22 06:56:05;;;;;;;;;20.75;17.75;;;;;16.94;29.54;101789.00;5058423;28;45554;-51
2021/12/22 06:58:30;;;;;;;;;20.00;16.00;;;;;17.13;29.38;101792.03;5058316;28;45261;-50
2021/12/22 07:00:56;;;;;;;;;17.75;15.25;;;;;17.30;29.34;101783.75;5057240;28;45370;-54
2021/12/22 07:03:21;;;;;;;;;15.75;15.75;;;;;17.44;29.50;101779.91;5058734;28;45369;-49
2021/12/22 07:05:47;;;;;;;;;18.00;13.75;;;;;17.58;29.13;101785.59;5058507;28;45326;-51
2021/12/22 07:08:12;;;;;;;;;17.75;15.25;;;;;17.72;29.03;101784.34;5058006;28;45636;-52
2021/12/22 07:10:37;;;;;;;;;15.25;15.25;;;;;17.81;28.97;101778.84;5058312;28;45477;-49
2021/12/22 07:13:04;;;;;;;;;15.25;13.00;;;;;17.93;29.08;101770.63;5058436;28;45403;-56
2021/12/22 07:15:29;;;;;;;;;20.75;14.00;;;;;18.00;28.96;101767.88;5040099;28;48572;-52
2021/12/22 07:17:55;;;;;;;;;12.75;11.75;;;;;18.10;28.83;101764.06;5058125;28;45371;-53
2021/12/22 07:20:21;;;;;;;;;14.25;13.75;;;;;18.17;28.86;101765.59;5058343;28;45288;-52
2021/12/22 07:22:47;;;;;;;;;13.00;11.25;;;;;18.23;28.73;101773.28;5040429;28;45280;-56
2021/12/22 07:25:15;;;;;;;;;16.75;15.25;;;;;18.32;28.81;101772.13;5057983;28;45319;-61
2021/12/22 07:27:40;;;;;;;;;18.25;14.50;;;;;18.38;28.75;101776.31;5058108;28;45263;-60
2021/12/22 07:30:07;;;;;;;;;14.25;12.50;;;;;18.44;28.70;101776.16;5057680;28;45470;-53
2021/12/22 07:32:32;;;;;;;;;15.50;15.25;;;;;18.49;28.22;101781.25;5058138;28;45540;-54
2021/12/22 07:35:14;;;;;;;;;19.00;14.75;;;;;18.54;28.73;101774.06;5057816;28;46238;-52
2021/12/22 07:37:39;;;;;;;;;15.25;14.00;;;;;18.59;28.48;101776.56;5057790;28;45259;-53
2021/12/22 07:40:09;;;;;;;;;15.33;15.33;;;;;18.61;28.56;101780.00;5058082;28;45284;-52
2021/12/22 07:42:34;;;;;;;;;19.50;14.00;;;;;18.65;28.67;101776.38;5057860;28;45513;-53
2021/12/22 07:45:00;;;;;;;;;17.50;14.50;;;;;18.67;28.57;101774.56;5039585;28;47595;-54
2021/12/22 07:47:25;;;;;;;;;15.50;14.25;;;;;18.71;28.46;101770.91;5057804;28;45332;-52
2021/12/22 07:49:51;;;;;;;;;17.75;15.00;;;;;18.73;28.23;101766.47;5058102;28;45342;-52
2021/12/22 07:52:16;;;;;;;;;13.75;13.25;;;;;18.79;28.40;101779.41;5058316;28;45613;-52
2021/12/22 07:54:42;;;;;;;;;13.75;11.50;;;;;18.85;28.55;101771.31;5057665;28;45474;-51
2021/12/22 07:57:07;;;;;;;;;12.00;11.50;;;;;18.94;28.67;101771.94;5057516;28;45328;-54
2021/12/22 07:59:33;;;;;;;;;12.75;12.25;;;;;18.99;28.32;101775.28;5039528;28;45321;-52
2021/12/22 08:01:58;;;;;;;;;14.25;12.00;;;;;19.08;28.38;101780.22;5057738;28;45478;-50
2021/12/22 08:04:24;;;;;;;;;16.00;14.50;;;;;19.15;28.29;101771.22;5057396;28;46479;-51
2021/12/22 08:06:50;;;;;;;;;14.25;14.00;;;;;19.22;28.10;101777.13;5057649;28;45793;-51
2021/12/22 08:09:16;;;;;;;;;16.50;12.75;;;;;19.29;28.26;101789.13;5057286;28;45276;-52
2021/12/22 08:11:41;;;;;;;;;13.50;12.00;;;;;19.36;28.43;101787.13;5057770;28;45312;-50
2021/12/22 08:14:07;;;;;;;;;12.00;11.50;;;;;19.41;28.24;101785.22;5057196;28;45476;-53
2021/12/22 08:16:32;;;;;;;;;14.25;14.00;;;;;19.49;27.72;101784.06;5057222;28;45256;-49
2021/12/22 08:18:58;;;;;;;;;16.75;13.75;;;;;19.54;28.20;101776.91;5057271;28;45344;-54
2021/12/22 08:21:23;;;;;;;;;12.00;12.00;;;;;19.59;27.61;101782.81;5057604;28;45797;-47
2021/12/22 08:23:48;;;;;;;;;11.50;9.25;;;;;19.63;28.10;101766.03;5057340;28;46668;-49
2021/12/22 08:26:13;;;;;;;;;14.00;12.50;;;;;19.67;27.95;101767.66;5057095;28;45466;-51
2021/12/22 08:28:39;;;;;;;;;15.50;14.50;;;;;19.73;28.10;101763.94;5057146;28;45348;-51
2021/12/22 08:31:05;;;;;;;;;14.25;13.00;;;;;19.76;27.65;101761.16;5057273;28;45661;-52
2021/12/22 08:33:32;;;;;;;;;13.75;13.00;;;;;19.78;27.82;101760.22;5056751;28;47106;-55
2021/12/22 08:38:51;;;;;;;;;13.25;13.25;;;;;19.87;27.62;101766.91;5056663;28;45273;-51
2021/12/22 08:41:26;;;;;;;;;15.50;13.00;;;;;19.91;27.75;101767.66;5056437;28;45454;-52
2021/12/22 08:43:54;;;;;;;;;16.50;14.00;;;;;19.92;28.05;101767.63;5056820;28;45324;-52
2021/12/22 08:46:21;;;;;;;;;13.00;11.50;;;;;19.94;27.75;101764.91;5056977;28;45315;-52
2021/12/22 08:48:46;;;;;;;;;13.25;13.25;;;;;19.96;27.99;101756.94;5056874;28;45341;-51
2021/12/22 08:51:11;;;;;;;;;19.25;14.75;;;;;19.98;27.99;101760.38;5038891;28;45463;-49
2021/12/22 08:53:37;;;;;;;;;12.00;11.75;;;;;20.01;27.52;101760.28;5056656;28;46143;-54
2021/12/22 08:56:02;;;;;;;;;16.00;11.75;;;;;20.02;27.83;101762.84;5056701;28;45433;-53
2021/12/22 08:58:28;;;;;;;;;14.00;11.50;;;;;20.04;27.50;101758.38;5038537;28;45499;-53
2021/12/22 09:00:53;;;;;;;;;12.00;11.00;;;;;20.05;27.88;101756.63;5056770;28;45486;-52
2021/12/22 09:03:19;;;;;;;;;17.75;14.25;;;;;20.05;27.84;101757.47;5056506;28;46842;-52
2021/12/22 09:05:44;;;;;;;;;17.25;16.25;;;;;20.05;27.81;101746.94;5056558;28;45612;-54
2021/12/22 09:08:10;;;;;;;;;11.00;10.25;;;;;20.06;27.65;101748.66;5056389;28;45284;-52
2021/12/22 09:10:35;;;;;;;;;11.25;10.50;;;;;20.06;27.94;101756.56;5056720;28;45328;-54
2021/12/22 09:13:00;;;;;;;;;13.50;13.50;;;;;20.08;27.58;101751.22;5056377;28;46697;-55
2021/12/22 09:15:26;;;;;;;;;19.25;11.25;;;;;20.08;27.54;101745.97;5038163;28;45415;-53
2021/12/22 09:17:51;;;;;;;;;12.75;9.75;;;;;20.11;27.84;101755.53;5038556;28;45343;-52
2021/12/22 09:20:17;;;;;;;;;17.75;15.00;;;;;20.11;27.84;101752.91;5056596;28;45374;-52
2021/12/22 09:22:42;;;;;;;;;15.25;14.00;;;;;20.11;27.76;101753.75;5055294;28;45313;-52
2021/12/22 09:25:09;;;;;;;;;15.75;13.75;;;;;20.12;27.39;101754.63;5056073;28;45328;-51
2021/12/22 09:27:35;;;;;;;;;16.50;13.50;;;;;20.13;27.73;101757.19;5056263;28;45301;-51
2021/12/22 09:30:01;;;;;;;;;15.00;12.50;;;;;20.13;27.37;101759.81;5056379;28;45609;-53
2021/12/22 09:32:26;;;;;;;;;12.75;12.50;;;;;20.13;27.60;101753.66;5055491;28;45693;-52
2021/12/22 09:34:52;;;;;;;;;17.75;13.75;;;;;20.11;27.90;101750.25;5056392;28;45256;-52
2021/12/22 09:37:17;;;;;;;;;16.75;15.75;;;;;20.12;27.77;101751.97;5055969;28;45221;-52
2021/12/22 09:39:43;;;;;;;;;16.75;13.50;;;;;20.11;27.94;101755.53;5056093;28;45566;-52
2021/12/22 09:42:10;;;;;;;;;20.50;15.00;;;;;20.11;27.69;101755.53;5037684;28;46890;-52
2021/12/22 09:44:43;;;;;;;;;16.50;12.50;;;;;20.10;27.47;101765.19;5056124;28;45378;-51
2021/12/22 09:47:09;;;;;;;;;10.50;9.75;;;;;20.07;27.87;101760.91;5056266;28;45272;-53
2021/12/22 09:49:46;;;;;;;;;12.75;9.75;;;;;20.04;27.86;101758.38;5056473;28;45371;-53
2021/12/22 09:52:17;;;;;;;;;15.75;14.75;;;;;20.03;27.85;101764.56;5055954;28;47398;-51
2021/12/22 09:54:43;;;;;;;;;14.25;11.50;;;;;20.06;27.55;101772.34;5059047;28;45972;-55
2021/12/22 09:57:10;;;;;;;;;15.50;11.00;;;;;20.07;27.26;101773.19;5041538;28;45415;-54
2021/12/22 09:59:36;;;;;;;;;10.25;10.25;;;;;20.08;27.49;101767.00;5059708;28;45339;-54
2021/12/22 10:02:03;;;;;;;;;12.75;11.50;;;;;20.11;27.69;101771.31;5059267;28;45693;-55
2021/12/22 10:04:29;;;;;;;;;14.75;11.00;;;;;20.14;27.40;101765.91;5059451;28;45340;-54
2021/12/22 10:06:54;;;;;;;;;16.25;12.25;;;;;20.17;27.50;101771.06;5059788;28;45398;-51
2021/12/22 10:09:24;;;;;;;;;12.75;11.50;;;;;20.21;27.53;101768.25;5059683;28;45498;-53
2021/12/22 10:11:50;;;;;;;;;12.00;10.00;;;;;20.23;27.38;101760.28;5059196;28;45382;-54
2021/12/22 10:14:20;;;;;;;;;14.00;11.75;;;;;20.27;27.75;101759.25;5059204;28;45317;-53
2021/12/22 10:16:49;;;;;;;;;12.75;10.50;;;;;20.28;27.76;101760.97;5059398;28;45258;-54
2021/12/22 10:19:14;;;;;;;;;17.75;12.00;;;;;20.33;27.43;101766.94;5059401;28;45318;-53
2021/12/22 10:22:09;;;;;;;;;15.50;13.75;;;;;20.36;27.65;101769.41;5058883;28;45451;-55
2021/12/22 10:24:44;;;;;;;;;14.25;11.50;;;;;20.37;27.51;101763.25;5045639;28;45387;-53
2021/12/22 10:27:17;;;;;;;;;16.00;13.25;;;;;20.41;27.20;101769.22;5059065;28;45555;-51
2021/12/22 10:29:43;;;;;;;;;10.00;10.00;;;;;20.43;27.09;101763.94;5059174;28;45534;-52
2021/12/22 10:32:12;;;;;;;;;14.25;11.00;;;;;20.45;27.74;101762.94;5058794;28;46190;-50
2021/12/22 10:35:02;;;;;;;;;13.50;13.25;;;;;20.49;27.49;101758.41;5058811;28;45509;-50
2021/12/22 10:37:46;;;;;;;;;12.75;11.25;;;;;20.47;27.87;101752.34;5059250;28;45403;-52
2021/12/22 10:40:22;;;;;;;;;13.25;13.25;;;;;20.49;27.86;101750.50;5058997;28;45486;-52
2021/12/22 10:42:47;;;;;;;;;14.00;13.00;;;;;20.49;27.49;101754.00;5040449;28;47374;-51
2021/12/22 10:45:16;;;;;;;;;13.25;12.25;;;;;20.50;27.57;101747.81;5058672;28;45336;-53
2021/12/22 10:50:41;;;;;;;;;12.00;10.75;;;;;20.50;27.59;101733.78;5043770;28;45216;-54
2021/12/22 10:53:08;;;;;;;;;15.50;13.75;;;;;20.50;27.50;101728.50;5058514;28;46335;-51
2021/12/22 10:55:39;;;;;;;;;14.50;12.25;;;;;20.51;27.81;101707.38;5058489;28;45502;-54
2021/12/22 10:58:34;;;;;;;;;15.75;13.25;;;;;20.54;27.79;101709.03;5058614;28;45313;-55
2021/12/22 11:01:13;;;;;;;;;16.00;14.25;;;;;20.57;27.45;101698.34;5028309;28;45301;-52
2021/12/22 11:03:51;;;;;;;;;17.50;13.50;;;;;20.60;27.78;101703.50;5058329;28;45384;-54
2021/12/22 11:06:28;;;;;;;;;15.50;12.50;;;;;20.63;27.62;101702.50;5057291;28;45893;-54
2021/12/22 11:08:56;;;;;;;;;13.50;13.00;;;;;20.67;27.50;101710.22;5058329;28;45174;-54
2021/12/22 11:11:22;;;;;;;;;16.25;15.75;;;;;20.69;27.63;101711.03;5058617;28;45344;-52
2021/12/22 11:14:07;;;;;;;;;14.50;13.75;;;;;20.72;27.59;101698.66;5040051;28;47333;-56
2021/12/22 11:16:50;;;;;;;;;13.50;13.50;;;;;20.74;27.78;101702.94;5058299;28;45450;-55
2021/12/22 11:19:15;;;;;;;;;15.50;13.25;;;;;20.74;27.80;101691.53;5058272;28;45245;-53
2021/12/22 11:22:00;;;;;;;;;10.00;8.75;;;;;20.78;27.59;101694.00;5058370;28;45510;-54
2021/12/22 11:24:30;;;;;;;;;11.75;11.75;;;;;20.80;27.82;101686.03;5057895;28;46576;-55
2021/12/22 11:26:56;;;;;;;;;16.75;11.75;;;;;20.81;27.56;101682.47;5058195;28;45355;-53
2021/12/22 11:29:23;;;;;;;;;13.50;11.00;;;;;20.83;27.57;101678.88;5058125;28;45348;-54
2021/12/22 11:31:49;;;;;;;;;12.25;8.25;;;;;20.85;27.55;101678.78;5058266;28;45182;-54
2021/12/22 11:34:17;;;;;;;;;17.00;13.25;;;;;20.84;27.45;101671.81;5057831;28;46298;-53